sensor_id;sensor_type;location;lat;lon;timestamp;P1;durP1;ratioP1;P2;durP2;ratioP2
55082;SDS011;40978;52.850;6.506;2024-03-22T00:00:54;8.38;;;5.20;;
55082;SDS011;40978;52.850;6.506;2024-03-22T00:03:19;8.40;;;5.07;;
55082;SDS011;40978;52.850;6.506;2024-03-22T00:05:45;7.82;;;4.45;;
55082;SDS011;40978;52.850;6.506;2024-03-22T00:08:10;9.95;;;5.32;;
55082;SDS011;40978;52.850;6.506;2024-03-22T00:10:36;7.75;;;4.72;;
55082;SDS011;40978;52.850;6.506;2024-03-22T00:13:02;11.25;;;5.45;;
55082;SDS011;40978;52.850;6.506;2024-03-22T00:15:28;9.63;;;5.70;;
55082;SDS011;40978;52.850;6.506;2024-03-22T00:17:53;7.40;;;4.55;;
55082;SDS011;40978;52.850;6.506;2024-03-22T00:20:19;11.02;;;6.53;;
55082;SDS011;40978;52.850;6.506;2024-03-22T00:22:45;14.27;;;6.25;;
55082;SDS011;40978;52.850;6.506;2024-03-22T00:25:10;14.50;;;5.63;;
55082;SDS011;40978;52.850;6.506;2024-03-22T00:27:36;9.90;;;5.32;;
55082;SDS011;40978;52.850;6.506;2024-03-22T00:30:02;12.73;;;6.75;;
55082;SDS011;40978;52.850;6.506;2024-03-22T00:32:29;12.68;;;6.18;;
55082;SDS011;40978;52.850;6.506;2024-03-22T00:34:55;11.55;;;6.50;;
55082;SDS011;40978;52.850;6.506;2024-03-22T00:37:21;11.27;;;6.75;;
55082;SDS011;40978;52.850;6.506;2024-03-22T00:39:47;10.85;;;6.63;;
55082;SDS011;40978;52.850;6.506;2024-03-22T00:42:12;12.88;;;7.38;;
55082;SDS011;40978;52.850;6.506;2024-03-22T00:44:38;17.08;;;7.55;;
55082;SDS011;40978;52.850;6.506;2024-03-22T00:47:04;11.80;;;7.15;;
55082;SDS011;40978;52.850;6.506;2024-03-22T00:49:31;10.68;;;5.55;;
55082;SDS011;40978;52.850;6.506;2024-03-22T00:51:56;15.48;;;8.23;;
55082;SDS011;40978;52.850;6.506;2024-03-22T00:54:22;15.48;;;6.97;;
55082;SDS011;40978;52.850;6.506;2024-03-22T00:56:48;12.98;;;6.75;;
55082;SDS011;40978;52.850;6.506;2024-03-22T00:59:14;15.15;;;6.88;;
55082;SDS011;40978;52.850;6.506;2024-03-22T01:01:40;13.68;;;7.25;;
55082;SDS011;40978;52.850;6.506;2024-03-22T01:04:05;11.43;;;6.47;;
55082;SDS011;40978;52.850;6.506;2024-03-22T01:06:33;9.40;;;6.60;;
55082;SDS011;40978;52.850;6.506;2024-03-22T01:08:59;12.85;;;7.35;;
55082;SDS011;40978;52.850;6.506;2024-03-22T01:11:25;11.50;;;6.95;;
55082;SDS011;40978;52.850;6.506;2024-03-22T01:13:51;13.10;;;7.35;;
55082;SDS011;40978;52.850;6.506;2024-03-22T01:16:17;12.68;;;7.22;;
55082;SDS011;40978;52.850;6.506;2024-03-22T01:18:42;11.75;;;6.95;;
55082;SDS011;40978;52.850;6.506;2024-03-22T01:21:08;12.93;;;7.22;;
55082;SDS011;40978;52.850;6.506;2024-03-22T01:23:33;14.27;;;7.10;;
55082;SDS011;40978;52.850;6.506;2024-03-22T01:25:59;11.98;;;6.90;;
55082;SDS011;40978;52.850;6.506;2024-03-22T01:28:25;16.40;;;7.10;;
55082;SDS011;40978;52.850;6.506;2024-03-22T01:30:50;12.88;;;6.68;;
55082;SDS011;40978;52.850;6.506;2024-03-22T01:33:16;16.95;;;8.10;;
55082;SDS011;40978;52.850;6.506;2024-03-22T01:35:42;14.70;;;7.43;;
55082;SDS011;40978;52.850;6.506;2024-03-22T01:38:07;12.85;;;7.03;;
55082;SDS011;40978;52.850;6.506;2024-03-22T01:40:33;14.05;;;7.55;;
55082;SDS011;40978;52.850;6.506;2024-03-22T01:42:59;10.65;;;6.32;;
55082;SDS011;40978;52.850;6.506;2024-03-22T01:45:25;11.88;;;6.93;;
55082;SDS011;40978;52.850;6.506;2024-03-22T01:47:54;12.35;;;7.13;;
55082;SDS011;40978;52.850;6.506;2024-03-22T01:50:21;13.90;;;7.75;;
55082;SDS011;40978;52.850;6.506;2024-03-22T01:52:47;13.57;;;7.25;;
55082;SDS011;40978;52.850;6.506;2024-03-22T01:55:13;13.07;;;7.25;;
55082;SDS011;40978;52.850;6.506;2024-03-22T01:57:39;15.27;;;6.45;;
55082;SDS011;40978;52.850;6.506;2024-03-22T02:00:05;11.48;;;6.45;;
55082;SDS011;40978;52.850;6.506;2024-03-22T02:02:33;15.25;;;7.50;;
55082;SDS011;40978;52.850;6.506;2024-03-22T02:05:05;14.02;;;8.63;;
55082;SDS011;40978;52.850;6.506;2024-03-22T02:07:40;14.88;;;8.45;;
55082;SDS011;40978;52.850;6.506;2024-03-22T02:10:07;17.05;;;8.00;;
55082;SDS011;40978;52.850;6.506;2024-03-22T02:12:36;17.27;;;8.43;;
55082;SDS011;40978;52.850;6.506;2024-03-22T02:15:02;16.38;;;7.60;;
55082;SDS011;40978;52.850;6.506;2024-03-22T02:17:28;16.20;;;8.02;;
55082;SDS011;40978;52.850;6.506;2024-03-22T02:19:54;16.00;;;8.52;;
55082;SDS011;40978;52.850;6.506;2024-03-22T02:22:19;14.55;;;7.90;;
55082;SDS011;40978;52.850;6.506;2024-03-22T02:32:07;15.85;;;7.57;;
55082;SDS011;40978;52.850;6.506;2024-03-22T02:34:33;16.10;;;8.13;;
55082;SDS011;40978;52.850;6.506;2024-03-22T02:36:58;16.48;;;9.05;;
55082;SDS011;40978;52.850;6.506;2024-03-22T02:39:24;14.45;;;7.22;;
55082;SDS011;40978;52.850;6.506;2024-03-22T02:41:50;14.68;;;8.00;;
55082;SDS011;40978;52.850;6.506;2024-03-22T02:44:16;19.67;;;8.57;;
55082;SDS011;40978;52.850;6.506;2024-03-22T02:46:42;14.90;;;7.57;;
55082;SDS011;40978;52.850;6.506;2024-03-22T02:49:07;15.65;;;8.38;;
55082;SDS011;40978;52.850;6.506;2024-03-22T02:51:33;12.00;;;7.57;;
55082;SDS011;40978;52.850;6.506;2024-03-22T02:53:59;16.25;;;8.10;;
55082;SDS011;40978;52.850;6.506;2024-03-22T02:56:24;12.45;;;7.82;;
55082;SDS011;40978;52.850;6.506;2024-03-22T02:58:50;13.35;;;7.28;;
55082;SDS011;40978;52.850;6.506;2024-03-22T03:01:16;12.63;;;7.18;;
55082;SDS011;40978;52.850;6.506;2024-03-22T03:03:41;16.08;;;8.60;;
55082;SDS011;40978;52.850;6.506;2024-03-22T03:06:07;16.13;;;8.13;;
55082;SDS011;40978;52.850;6.506;2024-03-22T03:08:33;14.15;;;7.50;;
55082;SDS011;40978;52.850;6.506;2024-03-22T03:10:59;13.23;;;7.60;;
55082;SDS011;40978;52.850;6.506;2024-03-22T03:13:25;15.73;;;8.98;;
55082;SDS011;40978;52.850;6.506;2024-03-22T03:15:51;12.25;;;8.32;;
55082;SDS011;40978;52.850;6.506;2024-03-22T03:18:17;13.90;;;7.95;;
55082;SDS011;40978;52.850;6.506;2024-03-22T03:20:43;13.18;;;7.55;;
55082;SDS011;40978;52.850;6.506;2024-03-22T03:23:08;14.27;;;7.80;;
55082;SDS011;40978;52.850;6.506;2024-03-22T03:25:34;13.32;;;7.38;;
55082;SDS011;40978;52.850;6.506;2024-03-22T03:28:00;17.40;;;9.43;;
55082;SDS011;40978;52.850;6.506;2024-03-22T03:30:25;17.25;;;8.35;;
55082;SDS011;40978;52.850;6.506;2024-03-22T03:32:51;21.25;;;9.02;;
55082;SDS011;40978;52.850;6.506;2024-03-22T03:35:17;15.88;;;8.57;;
55082;SDS011;40978;52.850;6.506;2024-03-22T03:37:42;13.40;;;8.15;;
55082;SDS011;40978;52.850;6.506;2024-03-22T03:40:08;12.93;;;6.97;;
55082;SDS011;40978;52.850;6.506;2024-03-22T03:42:34;16.35;;;8.43;;
55082;SDS011;40978;52.850;6.506;2024-03-22T03:44:59;15.25;;;7.05;;
55082;SDS011;40978;52.850;6.506;2024-03-22T03:47:25;12.73;;;7.38;;
55082;SDS011;40978;52.850;6.506;2024-03-22T03:49:51;17.20;;;8.57;;
55082;SDS011;40978;52.850;6.506;2024-03-22T03:52:17;14.15;;;8.15;;
55082;SDS011;40978;52.850;6.506;2024-03-22T03:54:43;15.40;;;7.70;;
55082;SDS011;40978;52.850;6.506;2024-03-22T03:57:08;16.50;;;7.88;;
55082;SDS011;40978;52.850;6.506;2024-03-22T03:59:34;14.75;;;8.13;;
55082;SDS011;40978;52.850;6.506;2024-03-22T04:02:00;14.02;;;7.25;;
55082;SDS011;40978;52.850;6.506;2024-03-22T04:04:26;16.38;;;8.05;;
55082;SDS011;40978;52.850;6.506;2024-03-22T04:06:52;16.15;;;7.68;;
55082;SDS011;40978;52.850;6.506;2024-03-22T04:09:17;16.90;;;7.57;;
55082;SDS011;40978;52.850;6.506;2024-03-22T04:11:43;16.77;;;7.88;;
55082;SDS011;40978;52.850;6.506;2024-03-22T04:14:09;18.50;;;8.77;;
55082;SDS011;40978;52.850;6.506;2024-03-22T04:16:35;15.40;;;7.70;;
55082;SDS011;40978;52.850;6.506;2024-03-22T04:19:01;14.82;;;6.55;;
55082;SDS011;40978;52.850;6.506;2024-03-22T04:21:26;17.13;;;7.50;;
55082;SDS011;40978;52.850;6.506;2024-03-22T04:23:52;15.30;;;7.28;;
55082;SDS011;40978;52.850;6.506;2024-03-22T04:26:18;18.27;;;8.25;;
55082;SDS011;40978;52.850;6.506;2024-03-22T04:28:43;15.88;;;6.10;;
55082;SDS011;40978;52.850;6.506;2024-03-22T04:31:12;13.95;;;7.75;;
55082;SDS011;40978;52.850;6.506;2024-03-22T04:33:37;13.15;;;7.90;;
55082;SDS011;40978;52.850;6.506;2024-03-22T04:36:03;18.15;;;9.90;;
55082;SDS011;40978;52.850;6.506;2024-03-22T04:38:29;14.48;;;7.50;;
55082;SDS011;40978;52.850;6.506;2024-03-22T04:40:56;15.88;;;8.32;;
55082;SDS011;40978;52.850;6.506;2024-03-22T04:43:22;19.42;;;7.38;;
55082;SDS011;40978;52.850;6.506;2024-03-22T04:45:49;12.82;;;6.65;;
55082;SDS011;40978;52.850;6.506;2024-03-22T04:48:20;12.73;;;6.60;;
55082;SDS011;40978;52.850;6.506;2024-03-22T04:50:47;16.90;;;8.15;;
55082;SDS011;40978;52.850;6.506;2024-03-22T04:53:16;14.38;;;7.60;;
55082;SDS011;40978;52.850;6.506;2024-03-22T04:55:46;12.25;;;6.32;;
55082;SDS011;40978;52.850;6.506;2024-03-22T04:58:13;15.40;;;6.65;;
55082;SDS011;40978;52.850;6.506;2024-03-22T05:00:39;14.73;;;6.80;;
55082;SDS011;40978;52.850;6.506;2024-03-22T05:03:05;18.08;;;7.00;;
55082;SDS011;40978;52.850;6.506;2024-03-22T05:05:31;17.73;;;6.55;;
55082;SDS011;40978;52.850;6.506;2024-03-22T05:07:57;18.23;;;7.18;;
55082;SDS011;40978;52.850;6.506;2024-03-22T05:10:22;18.35;;;7.50;;
55082;SDS011;40978;52.850;6.506;2024-03-22T05:12:48;13.77;;;7.10;;
55082;SDS011;40978;52.850;6.506;2024-03-22T05:15:14;14.40;;;6.93;;
55082;SDS011;40978;52.850;6.506;2024-03-22T05:17:39;14.88;;;6.85;;
55082;SDS011;40978;52.850;6.506;2024-03-22T05:20:06;18.38;;;8.20;;
55082;SDS011;40978;52.850;6.506;2024-03-22T05:22:36;14.60;;;7.00;;
55082;SDS011;40978;52.850;6.506;2024-03-22T05:25:03;12.75;;;6.38;;
55082;SDS011;40978;52.850;6.506;2024-03-22T05:27:30;12.55;;;7.20;;
55082;SDS011;40978;52.850;6.506;2024-03-22T05:29:57;12.00;;;6.65;;
55082;SDS011;40978;52.850;6.506;2024-03-22T05:32:23;14.35;;;6.97;;
55082;SDS011;40978;52.850;6.506;2024-03-22T05:34:50;16.17;;;6.90;;
55082;SDS011;40978;52.850;6.506;2024-03-22T05:37:16;14.80;;;6.90;;
55082;SDS011;40978;52.850;6.506;2024-03-22T05:39:41;11.32;;;6.10;;
55082;SDS011;40978;52.850;6.506;2024-03-22T05:42:07;14.70;;;6.43;;
55082;SDS011;40978;52.850;6.506;2024-03-22T05:44:33;14.55;;;6.95;;
55082;SDS011;40978;52.850;6.506;2024-03-22T05:46:59;12.93;;;6.78;;
55082;SDS011;40978;52.850;6.506;2024-03-22T05:49:25;13.90;;;6.78;;
55082;SDS011;40978;52.850;6.506;2024-03-22T05:51:51;17.23;;;7.20;;
55082;SDS011;40978;52.850;6.506;2024-03-22T05:54:16;15.27;;;6.38;;
55082;SDS011;40978;52.850;6.506;2024-03-22T05:56:42;14.13;;;6.80;;
55082;SDS011;40978;52.850;6.506;2024-03-22T05:59:08;17.95;;;7.00;;
55082;SDS011;40978;52.850;6.506;2024-03-22T06:01:35;11.75;;;6.35;;
55082;SDS011;40978;52.850;6.506;2024-03-22T06:04:03;16.50;;;6.88;;
55082;SDS011;40978;52.850;6.506;2024-03-22T06:06:29;15.73;;;7.88;;
55082;SDS011;40978;52.850;6.506;2024-03-22T06:08:54;15.02;;;6.28;;
55082;SDS011;40978;52.850;6.506;2024-03-22T06:11:22;12.50;;;5.95;;
55082;SDS011;40978;52.850;6.506;2024-03-22T06:13:48;21.08;;;6.95;;
55082;SDS011;40978;52.850;6.506;2024-03-22T06:16:14;14.15;;;7.00;;
55082;SDS011;40978;52.850;6.506;2024-03-22T06:18:40;12.73;;;7.25;;
55082;SDS011;40978;52.850;6.506;2024-03-22T06:21:06;14.35;;;6.75;;
55082;SDS011;40978;52.850;6.506;2024-03-22T06:23:32;14.93;;;7.07;;
55082;SDS011;40978;52.850;6.506;2024-03-22T06:25:58;13.73;;;7.07;;
55082;SDS011;40978;52.850;6.506;2024-03-22T06:28:25;16.25;;;6.50;;
55082;SDS011;40978;52.850;6.506;2024-03-22T06:30:51;16.15;;;6.53;;
55082;SDS011;40978;52.850;6.506;2024-03-22T06:33:17;11.48;;;6.45;;
55082;SDS011;40978;52.850;6.506;2024-03-22T06:35:44;12.18;;;5.90;;
55082;SDS011;40978;52.850;6.506;2024-03-22T06:38:11;15.48;;;7.47;;
55082;SDS011;40978;52.850;6.506;2024-03-22T06:40:37;16.70;;;7.60;;
55082;SDS011;40978;52.850;6.506;2024-03-22T06:43:03;14.32;;;7.75;;
55082;SDS011;40978;52.850;6.506;2024-03-22T06:45:29;10.35;;;6.15;;
55082;SDS011;40978;52.850;6.506;2024-03-22T06:47:55;12.30;;;6.30;;
55082;SDS011;40978;52.850;6.506;2024-03-22T06:50:20;15.63;;;7.25;;
55082;SDS011;40978;52.850;6.506;2024-03-22T06:52:52;8.95;;;5.30;;
55082;SDS011;40978;52.850;6.506;2024-03-22T06:55:19;11.18;;;5.97;;
55082;SDS011;40978;52.850;6.506;2024-03-22T06:57:46;20.70;;;7.20;;
55082;SDS011;40978;52.850;6.506;2024-03-22T07:00:12;14.23;;;5.68;;
55082;SDS011;40978;52.850;6.506;2024-03-22T07:02:39;14.95;;;6.82;;
55082;SDS011;40978;52.850;6.506;2024-03-22T07:05:08;14.05;;;6.53;;
55082;SDS011;40978;52.850;6.506;2024-03-22T07:07:35;12.30;;;5.60;;
55082;SDS011;40978;52.850;6.506;2024-03-22T07:10:01;9.05;;;5.57;;
55082;SDS011;40978;52.850;6.506;2024-03-22T07:12:27;6.95;;;4.80;;
55082;SDS011;40978;52.850;6.506;2024-03-22T07:14:54;11.77;;;4.97;;
55082;SDS011;40978;52.850;6.506;2024-03-22T07:17:21;12.18;;;6.72;;
55082;SDS011;40978;52.850;6.506;2024-03-22T07:19:52;11.73;;;5.18;;
55082;SDS011;40978;52.850;6.506;2024-03-22T07:22:19;12.30;;;4.95;;
55082;SDS011;40978;52.850;6.506;2024-03-22T07:24:45;13.27;;;5.80;;
55082;SDS011;40978;52.850;6.506;2024-03-22T07:27:12;13.80;;;6.00;;
55082;SDS011;40978;52.850;6.506;2024-03-22T07:29:39;9.68;;;4.72;;
55082;SDS011;40978;52.850;6.506;2024-03-22T07:32:05;7.75;;;4.00;;
55082;SDS011;40978;52.850;6.506;2024-03-22T07:34:31;10.70;;;4.30;;
55082;SDS011;40978;52.850;6.506;2024-03-22T07:36:56;8.18;;;5.20;;
55082;SDS011;40978;52.850;6.506;2024-03-22T07:39:22;9.35;;;4.72;;
55082;SDS011;40978;52.850;6.506;2024-03-22T07:41:49;9.27;;;4.72;;
55082;SDS011;40978;52.850;6.506;2024-03-22T07:44:14;6.43;;;3.47;;
55082;SDS011;40978;52.850;6.506;2024-03-22T07:46:43;4.82;;;2.95;;
55082;SDS011;40978;52.850;6.506;2024-03-22T07:49:09;8.20;;;4.25;;
55082;SDS011;40978;52.850;6.506;2024-03-22T07:51:35;8.48;;;3.22;;
55082;SDS011;40978;52.850;6.506;2024-03-22T07:54:01;6.95;;;3.22;;
55082;SDS011;40978;52.850;6.506;2024-03-22T07:56:27;5.70;;;3.42;;
55082;SDS011;40978;52.850;6.506;2024-03-22T07:58:53;6.13;;;3.85;;
55082;SDS011;40978;52.850;6.506;2024-03-22T08:01:19;7.22;;;5.13;;
55082;SDS011;40978;52.850;6.506;2024-03-22T08:03:44;8.05;;;4.28;;
55082;SDS011;40978;52.850;6.506;2024-03-22T08:06:10;8.30;;;3.70;;
55082;SDS011;40978;52.850;6.506;2024-03-22T08:08:36;11.57;;;4.20;;
55082;SDS011;40978;52.850;6.506;2024-03-22T08:11:01;9.65;;;3.15;;
55082;SDS011;40978;52.850;6.506;2024-03-22T08:13:27;6.95;;;3.47;;
55082;SDS011;40978;52.850;6.506;2024-03-22T08:15:53;11.68;;;4.45;;
55082;SDS011;40978;52.850;6.506;2024-03-22T08:18:19;7.93;;;3.17;;
55082;SDS011;40978;52.850;6.506;2024-03-22T08:20:44;9.43;;;3.30;;
55082;SDS011;40978;52.850;6.506;2024-03-22T08:23:10;8.18;;;3.38;;
55082;SDS011;40978;52.850;6.506;2024-03-22T08:25:36;6.35;;;3.03;;
55082;SDS011;40978;52.850;6.506;2024-03-22T08:28:02;6.57;;;4.25;;
55082;SDS011;40978;52.850;6.506;2024-03-22T08:30:28;6.25;;;2.88;;
55082;SDS011;40978;52.850;6.506;2024-03-22T08:32:53;7.30;;;3.05;;
55082;SDS011;40978;52.850;6.506;2024-03-22T08:35:19;4.75;;;2.95;;
55082;SDS011;40978;52.850;6.506;2024-03-22T08:37:45;5.40;;;3.72;;
55082;SDS011;40978;52.850;6.506;2024-03-22T08:40:11;6.93;;;2.45;;
55082;SDS011;40978;52.850;6.506;2024-03-22T08:42:39;6.32;;;3.90;;
55082;SDS011;40978;52.850;6.506;2024-03-22T08:45:05;12.02;;;4.05;;
55082;SDS011;40978;52.850;6.506;2024-03-22T08:47:31;8.38;;;2.55;;
55082;SDS011;40978;52.850;6.506;2024-03-22T08:49:58;8.05;;;2.90;;
55082;SDS011;40978;52.850;6.506;2024-03-22T08:52:24;4.55;;;2.35;;
55082;SDS011;40978;52.850;6.506;2024-03-22T08:54:50;7.55;;;2.92;;
55082;SDS011;40978;52.850;6.506;2024-03-22T08:57:19;6.47;;;2.67;;
55082;SDS011;40978;52.850;6.506;2024-03-22T08:59:45;7.55;;;2.47;;
55082;SDS011;40978;52.850;6.506;2024-03-22T09:02:11;6.57;;;3.08;;
55082;SDS011;40978;52.850;6.506;2024-03-22T09:04:37;4.28;;;2.65;;
55082;SDS011;40978;52.850;6.506;2024-03-22T09:07:03;15.05;;;2.70;;
55082;SDS011;40978;52.850;6.506;2024-03-22T09:09:29;6.30;;;3.30;;
55082;SDS011;40978;52.850;6.506;2024-03-22T09:11:54;4.47;;;2.97;;
55082;SDS011;40978;52.850;6.506;2024-03-22T09:14:20;4.25;;;2.35;;
55082;SDS011;40978;52.850;6.506;2024-03-22T09:16:46;7.53;;;2.90;;
55082;SDS011;40978;52.850;6.506;2024-03-22T09:19:11;4.65;;;2.30;;
55082;SDS011;40978;52.850;6.506;2024-03-22T09:21:37;3.88;;;2.22;;
55082;SDS011;40978;52.850;6.506;2024-03-22T09:24:03;6.88;;;2.25;;
55082;SDS011;40978;52.850;6.506;2024-03-22T09:26:29;5.25;;;2.42;;
55082;SDS011;40978;52.850;6.506;2024-03-22T09:28:57;12.35;;;2.72;;
55082;SDS011;40978;52.850;6.506;2024-03-22T09:31:23;2.78;;;2.03;;
55082;SDS011;40978;52.850;6.506;2024-03-22T09:33:48;3.35;;;2.53;;
55082;SDS011;40978;52.850;6.506;2024-03-22T09:36:14;3.92;;;2.33;;
55082;SDS011;40978;52.850;6.506;2024-03-22T09:38:41;4.07;;;2.28;;
55082;SDS011;40978;52.850;6.506;2024-03-22T09:41:06;2.97;;;1.85;;
55082;SDS011;40978;52.850;6.506;2024-03-22T09:43:32;3.80;;;1.83;;
55082;SDS011;40978;52.850;6.506;2024-03-22T09:45:59;4.22;;;1.58;;
55082;SDS011;40978;52.850;6.506;2024-03-22T09:48:26;2.88;;;1.95;;
55082;SDS011;40978;52.850;6.506;2024-03-22T09:50:54;2.90;;;1.85;;
55082;SDS011;40978;52.850;6.506;2024-03-22T09:53:20;6.38;;;2.05;;
55082;SDS011;40978;52.850;6.506;2024-03-22T09:55:47;3.63;;;1.80;;
55082;SDS011;40978;52.850;6.506;2024-03-22T09:58:14;3.95;;;2.00;;
55082;SDS011;40978;52.850;6.506;2024-03-22T10:00:44;4.82;;;2.05;;
55082;SDS011;40978;52.850;6.506;2024-03-22T10:03:10;4.28;;;2.15;;
55082;SDS011;40978;52.850;6.506;2024-03-22T10:05:36;5.53;;;2.42;;
55082;SDS011;40978;52.850;6.506;2024-03-22T10:08:05;2.78;;;1.65;;
55082;SDS011;40978;52.850;6.506;2024-03-22T10:10:31;3.50;;;2.30;;
55082;SDS011;40978;52.850;6.506;2024-03-22T10:13:00;2.95;;;2.00;;
55082;SDS011;40978;52.850;6.506;2024-03-22T10:15:26;5.75;;;1.58;;
55082;SDS011;40978;52.850;6.506;2024-03-22T10:17:52;6.63;;;1.73;;
55082;SDS011;40978;52.850;6.506;2024-03-22T10:20:21;6.30;;;1.60;;
55082;SDS011;40978;52.850;6.506;2024-03-22T10:22:56;2.17;;;1.30;;
55082;SDS011;40978;52.850;6.506;2024-03-22T10:25:26;2.65;;;1.70;;
55082;SDS011;40978;52.850;6.506;2024-03-22T10:27:55;3.38;;;1.98;;
55082;SDS011;40978;52.850;6.506;2024-03-22T10:30:22;2.15;;;1.23;;
55082;SDS011;40978;52.850;6.506;2024-03-22T10:32:50;2.45;;;1.40;;
55082;SDS011;40978;52.850;6.506;2024-03-22T10:35:16;2.60;;;1.60;;
55082;SDS011;40978;52.850;6.506;2024-03-22T10:37:43;1.80;;;1.05;;
55082;SDS011;40978;52.850;6.506;2024-03-22T10:40:09;3.00;;;1.40;;
55082;SDS011;40978;52.850;6.506;2024-03-22T10:42:35;6.25;;;1.27;;
55082;SDS011;40978;52.850;6.506;2024-03-22T10:45:02;1.55;;;1.10;;
55082;SDS011;40978;52.850;6.506;2024-03-22T10:47:29;4.47;;;1.25;;
55082;SDS011;40978;52.850;6.506;2024-03-22T10:50:06;3.70;;;1.20;;
55082;SDS011;40978;52.850;6.506;2024-03-22T10:58:22;1.52;;;1.13;;
55082;SDS011;40978;52.850;6.506;2024-03-22T11:00:53;1.33;;;0.98;;
55082;SDS011;40978;52.850;6.506;2024-03-22T11:03:20;1.50;;;0.90;;
55082;SDS011;40978;52.850;6.506;2024-03-22T11:05:54;1.40;;;0.60;;
55082;SDS011;40978;52.850;6.506;2024-03-22T11:10:51;1.67;;;0.85;;
55082;SDS011;40978;52.850;6.506;2024-03-22T11:13:18;3.47;;;0.80;;
55082;SDS011;40978;52.850;6.506;2024-03-22T11:15:46;1.52;;;0.85;;
55082;SDS011;40978;52.850;6.506;2024-03-22T11:18:13;1.35;;;0.70;;
55082;SDS011;40978;52.850;6.506;2024-03-22T11:20:39;1.23;;;0.68;;
55082;SDS011;40978;52.850;6.506;2024-03-22T11:23:04;1.10;;;0.65;;
55082;SDS011;40978;52.850;6.506;2024-03-22T11:25:31;6.05;;;1.05;;
55082;SDS011;40978;52.850;6.506;2024-03-22T11:27:58;0.63;;;0.45;;
55082;SDS011;40978;52.850;6.506;2024-03-22T11:30:26;1.48;;;1.10;;
55082;SDS011;40978;52.850;6.506;2024-03-22T11:32:53;3.15;;;1.40;;
55082;SDS011;40978;52.850;6.506;2024-03-22T11:35:19;1.10;;;0.57;;
55082;SDS011;40978;52.850;6.506;2024-03-22T11:37:45;1.40;;;0.63;;
55082;SDS011;40978;52.850;6.506;2024-03-22T11:40:11;2.15;;;0.93;;
55082;SDS011;40978;52.850;6.506;2024-03-22T11:42:41;1.08;;;0.73;;
55082;SDS011;40978;52.850;6.506;2024-03-22T11:45:10;2.40;;;0.65;;
55082;SDS011;40978;52.850;6.506;2024-03-22T11:47:37;0.68;;;0.40;;
55082;SDS011;40978;52.850;6.506;2024-03-22T11:50:03;0.60;;;0.52;;
55082;SDS011;40978;52.850;6.506;2024-03-22T11:52:30;0.70;;;0.45;;
55082;SDS011;40978;52.850;6.506;2024-03-22T11:54:56;1.15;;;0.50;;
55082;SDS011;40978;52.850;6.506;2024-03-22T11:57:22;2.75;;;0.22;;
55082;SDS011;40978;52.850;6.506;2024-03-22T11:59:48;0.90;;;0.45;;
55082;SDS011;40978;52.850;6.506;2024-03-22T12:02:15;0.55;;;0.30;;
55082;SDS011;40978;52.850;6.506;2024-03-22T12:04:42;0.98;;;0.55;;
55082;SDS011;40978;52.850;6.506;2024-03-22T12:07:13;1.92;;;0.77;;
55082;SDS011;40978;52.850;6.506;2024-03-22T12:09:42;1.52;;;0.77;;
55082;SDS011;40978;52.850;6.506;2024-03-22T12:12:10;0.98;;;0.40;;
55082;SDS011;40978;52.850;6.506;2024-03-22T12:14:37;1.00;;;0.50;;
55082;SDS011;40978;52.850;6.506;2024-03-22T12:17:05;1.23;;;0.32;;
55082;SDS011;40978;52.850;6.506;2024-03-22T12:19:32;1.77;;;0.80;;
55082;SDS011;40978;52.850;6.506;2024-03-22T12:21:58;1.00;;;0.38;;
55082;SDS011;40978;52.850;6.506;2024-03-22T12:24:24;1.50;;;0.47;;
55082;SDS011;40978;52.850;6.506;2024-03-22T12:26:50;1.17;;;0.30;;
55082;SDS011;40978;52.850;6.506;2024-03-22T12:29:16;0.55;;;0.17;;
55082;SDS011;40978;52.850;6.506;2024-03-22T12:31:43;0.50;;;0.20;;
55082;SDS011;40978;52.850;6.506;2024-03-22T12:34:09;0.40;;;0.20;;
55082;SDS011;40978;52.850;6.506;2024-03-22T12:36:35;0.40;;;0.20;;
55082;SDS011;40978;52.850;6.506;2024-03-22T12:39:01;0.45;;;0.28;;
55082;SDS011;40978;52.850;6.506;2024-03-22T12:41:28;0.88;;;0.40;;
55082;SDS011;40978;52.850;6.506;2024-03-22T12:43:54;0.50;;;0.40;;
55082;SDS011;40978;52.850;6.506;2024-03-22T12:46:20;0.75;;;0.35;;
55082;SDS011;40978;52.850;6.506;2024-03-22T12:48:46;0.45;;;0.22;;
55082;SDS011;40978;52.850;6.506;2024-03-22T12:51:12;0.30;;;0.20;;
55082;SDS011;40978;52.850;6.506;2024-03-22T12:53:38;0.47;;;0.30;;
55082;SDS011;40978;52.850;6.506;2024-03-22T12:56:04;1.23;;;0.30;;
55082;SDS011;40978;52.850;6.506;2024-03-22T12:58:30;2.28;;;0.20;;
55082;SDS011;40978;52.850;6.506;2024-03-22T13:00:56;0.75;;;0.17;;
55082;SDS011;40978;52.850;6.506;2024-03-22T13:03:23;1.40;;;0.25;;
55082;SDS011;40978;52.850;6.506;2024-03-22T13:05:48;0.90;;;0.50;;
55082;SDS011;40978;52.850;6.506;2024-03-22T13:08:14;0.52;;;0.40;;
55082;SDS011;40978;52.850;6.506;2024-03-22T13:10:40;3.42;;;0.77;;
55082;SDS011;40978;52.850;6.506;2024-03-22T13:13:08;2.92;;;0.52;;
55082;SDS011;40978;52.850;6.506;2024-03-22T13:15:34;1.33;;;0.30;;
55082;SDS011;40978;52.850;6.506;2024-03-22T13:18:02;1.65;;;0.50;;
55082;SDS011;40978;52.850;6.506;2024-03-22T13:20:28;5.07;;;0.50;;
55082;SDS011;40978;52.850;6.506;2024-03-22T13:22:54;0.85;;;0.20;;
55082;SDS011;40978;52.850;6.506;2024-03-22T13:25:20;3.47;;;1.02;;
55082;SDS011;40978;52.850;6.506;2024-03-22T13:27:46;1.25;;;0.45;;
55082;SDS011;40978;52.850;6.506;2024-03-22T13:30:12;0.90;;;0.30;;
55082;SDS011;40978;52.850;6.506;2024-03-22T13:32:39;2.72;;;0.73;;
55082;SDS011;40978;52.850;6.506;2024-03-22T13:35:06;0.70;;;0.40;;
55082;SDS011;40978;52.850;6.506;2024-03-22T13:37:32;6.35;;;1.08;;
55082;SDS011;40978;52.850;6.506;2024-03-22T13:39:58;0.98;;;0.40;;
55082;SDS011;40978;52.850;6.506;2024-03-22T13:42:24;0.88;;;0.30;;
55082;SDS011;40978;52.850;6.506;2024-03-22T13:44:51;1.33;;;0.65;;
55082;SDS011;40978;52.850;6.506;2024-03-22T13:47:16;6.20;;;0.95;;
55082;SDS011;40978;52.850;6.506;2024-03-22T13:49:43;1.98;;;0.85;;
55082;SDS011;40978;52.850;6.506;2024-03-22T13:52:10;2.33;;;0.68;;
55082;SDS011;40978;52.850;6.506;2024-03-22T13:54:36;1.38;;;0.63;;
55082;SDS011;40978;52.850;6.506;2024-03-22T13:57:02;2.55;;;0.60;;
55082;SDS011;40978;52.850;6.506;2024-03-22T13:59:28;1.40;;;0.73;;
55082;SDS011;40978;52.850;6.506;2024-03-22T14:01:54;1.48;;;0.52;;
55082;SDS011;40978;52.850;6.506;2024-03-22T14:04:22;0.80;;;0.60;;
55082;SDS011;40978;52.850;6.506;2024-03-22T14:06:48;2.72;;;0.88;;
55082;SDS011;40978;52.850;6.506;2024-03-22T14:09:14;1.40;;;0.60;;
55082;SDS011;40978;52.850;6.506;2024-03-22T14:11:40;3.30;;;0.50;;
55082;SDS011;40978;52.850;6.506;2024-03-22T14:14:08;4.47;;;2.33;;
55082;SDS011;40978;52.850;6.506;2024-03-22T14:16:37;3.40;;;1.08;;
55082;SDS011;40978;52.850;6.506;2024-03-22T14:19:03;3.15;;;0.60;;
55082;SDS011;40978;52.850;6.506;2024-03-22T14:21:28;3.05;;;0.80;;
55082;SDS011;40978;52.850;6.506;2024-03-22T14:23:54;6.68;;;1.13;;
55082;SDS011;40978;52.850;6.506;2024-03-22T14:26:20;3.72;;;0.95;;
55082;SDS011;40978;52.850;6.506;2024-03-22T14:28:47;5.10;;;1.45;;
55082;SDS011;40978;52.850;6.506;2024-03-22T14:31:13;3.63;;;1.40;;
55082;SDS011;40978;52.850;6.506;2024-03-22T14:33:39;2.20;;;0.95;;
55082;SDS011;40978;52.850;6.506;2024-03-22T14:36:05;3.63;;;0.75;;
55082;SDS011;40978;52.850;6.506;2024-03-22T14:38:32;1.58;;;0.77;;
55082;SDS011;40978;52.850;6.506;2024-03-22T14:40:58;1.85;;;1.05;;
55082;SDS011;40978;52.850;6.506;2024-03-22T14:43:25;3.70;;;0.82;;
55082;SDS011;40978;52.850;6.506;2024-03-22T14:45:52;4.70;;;0.95;;
55082;SDS011;40978;52.850;6.506;2024-03-22T14:48:19;3.85;;;0.70;;
55082;SDS011;40978;52.850;6.506;2024-03-22T14:50:45;2.65;;;1.23;;